Flight Track Log - Related Links

Times and Time Zones

All times are in EST time to prevent confusion due to time zone crossing. See the N3840U flight status page for this flight to view local times or setup timezone preferences in your user account.

Time Position Orientation Groundspeed Altitude Reporting Facility
EST Latitude Longitude Course Direction KTS MPH feet Rate Location/Type
05:36PM 33.1953 -85.6425 316° Northwest 153 176 6,600  Level Atlanta Center
05:37PM 33.2239 -85.6753 316° Northwest 153 176 6,600  Level Atlanta Center
05:38PM 33.2550 -85.7056 321° Northwest 153 176 6,600  Level Atlanta Center
05:39PM 33.2878 -85.7386 320° Northwest 153 176 6,600 -50 Level Atlanta Center
05:40PM 33.3228 -85.7767 318° Northwest 153 176 6,500  Descending Atlanta Center
05:41PM 33.3475 -85.7994 322° Northwest 156 180 6,600 50 Climbing Atlanta Center
05:42PM 33.3783 -85.8350 316° Northwest 150 173 6,600  Level Atlanta Center
05:43PM 33.4092 -85.8653 321° Northwest 150 173 6,600  Level Atlanta Center
05:43PM 33.4172 -85.8806 302° West 151 174 6,600  Level Atlanta Center
05:44PM 33.4422 -85.8983 329° Northwest 150 173 6,600  Level Atlanta Center
05:45PM 33.4728 -85.9339 316° Northwest 150 173 6,600  Level Atlanta Center
05:46PM 33.4933 -85.9619 311° West 152 175 6,600  Level Atlanta Center
05:46PM 33.5036 -85.9669 338° Northwest 150 173 6,600  Level Atlanta Center
05:47PM 33.5242 -85.9950 311° West 153 176 6,600  Level Atlanta Center
05:47PM 33.5344 -86.0025 329° Northwest 150 173 6,600  Level Atlanta Center
05:48PM 33.5569 -86.0306 314° West 154 177 6,600 -200 Level Atlanta Center
05:48PM 33.5694 -86.0308 359° North 150 173 6,400 -655 Descending Atlanta Center
05:49PM 33.5919 -86.0514 323° Northwest 165 190 6,000 -800 Descending Atlanta Center
05:49PM 33.6192 -86.0569 350° North 155 178 5,600 -787 Descending Atlanta Center
05:50PM 33.6378 -86.0672 335° Northwest 172 198 5,200 -700 Descending Atlanta Center
05:50PM 33.6628 -86.0728 350° North 161 185 4,900 -700 Descending Atlanta Center
05:51PM 33.6814 -86.0833 335° Northwest 169 194 4,500 -500 Descending Atlanta Center
05:51PM 33.6981 -86.0861 352° North 166 191 4,400 -590 Descending Atlanta Center
05:52PM 33.7311 -86.0969 345° North 169 194 3,900 2,100 Descending Atlanta Center
05:52PM 33.7414 -86.1122 309° West 166 191 6,500 1,773 Climbing Atlanta Center
05:53PM 33.7828 -86.1308 340° North 166 191 6,500  Level Atlanta Center
05:55PM 33.8296 -86.1142 16° North  Level FlightAware Approximate
06:02PM 33.9667 -86.0833 North  Level FlightAware Approximate
06:03PM 33.9726 -86.0891 North  Level Estimated
06:04PM 33.9726 -86.0891 North  Level Estimated
06:05PM 33.9726 -86.0891 North  Level Estimated
06:06PM 33.9726 -86.0891 North  Level Estimated
06:07PM 33.9726 -86.0891 North  Level Estimated
06:08PM 33.9726 -86.0891 North  Level Estimated
06:09PM 33.9726 -86.0891 North  Level Estimated
06:10PM 33.9726 -86.0891 North  Level Estimated
06:11PM 33.9726 -86.0891 North  Level Estimated
06:12PM 33.9726 -86.0891 North  Level Estimated
06:13PM 33.9726 -86.0891 North  Level Estimated

Login

Don't have an account? Register now (free) for customized features, flight alerts, and more!